createdAt,value
2023-03-31T00:01:28.788Z,9.17
2023-03-31T00:04:04.872Z,6.57
2023-03-31T00:06:39.200Z,4.87
2023-03-31T00:09:11.484Z,4.30
2023-03-31T00:11:40.618Z,4.90
2023-03-31T00:14:09.996Z,4.97
2023-03-31T00:16:40.706Z,5.70
2023-03-31T00:19:17.969Z,3.33
2023-03-31T00:21:49.388Z,4.13
2023-03-31T00:24:18.287Z,3.27
2023-03-31T00:26:47.040Z,5.73
2023-03-31T00:29:15.707Z,6.20
2023-03-31T00:31:44.215Z,4.00
2023-03-31T00:34:12.821Z,3.80
2023-03-31T00:36:47.315Z,4.43
2023-03-31T00:39:20.236Z,4.57
2023-03-31T00:41:48.757Z,5.80
2023-03-31T00:44:23.031Z,4.37
2023-03-31T00:46:56.812Z,3.60
2023-03-31T00:49:31.260Z,4.50
2023-03-31T00:52:07.163Z,4.87
2023-03-31T00:54:39.585Z,4.20
2023-03-31T00:57:10.639Z,2.63
2023-03-31T00:59:44.151Z,4.30
2023-03-31T01:02:17.311Z,4.20
2023-03-31T01:04:50.334Z,4.23
2023-03-31T01:07:25.711Z,6.77
2023-03-31T01:10:01.349Z,4.73
2023-03-31T01:12:30.261Z,3.00
2023-03-31T01:14:58.927Z,4.17
2023-03-31T01:17:30.064Z,4.07
2023-03-31T01:20:15.425Z,5.93
2023-03-31T01:23:41.019Z,8.97
2023-03-31T01:26:57.863Z,4.67
2023-03-31T01:29:58.255Z,6.43
2023-03-31T01:33:14.781Z,7.40
2023-03-31T01:36:30.036Z,5.73
2023-03-31T01:39:55.831Z,7.07
2023-03-31T01:42:37.450Z,8.83
2023-03-31T01:45:22.510Z,8.33
2023-03-31T01:47:59.219Z,11.07
2023-03-31T01:50:36.592Z,9.40
2023-03-31T01:53:16.952Z,9.13
2023-03-31T01:55:54.830Z,9.30
2023-03-31T01:58:32.303Z,9.43
2023-03-31T02:01:07.405Z,12.97
2023-03-31T02:03:44.710Z,9.20
2023-03-31T02:06:19.531Z,10.77
2023-03-31T02:08:55.619Z,8.37
2023-03-31T02:11:25.921Z,11.00
2023-03-31T02:13:58.044Z,9.50
2023-03-31T02:16:30.468Z,8.23
2023-03-31T02:19:04.090Z,6.80
2023-03-31T02:21:36.438Z,7.23
2023-03-31T02:24:11.400Z,9.47
2023-03-31T02:26:46.686Z,10.40
2023-03-31T02:29:27.725Z,10.17
2023-03-31T02:32:25.910Z,12.70
2023-03-31T02:34:56.222Z,11.63
2023-03-31T02:37:25.358Z,11.77
2023-03-31T02:39:58.163Z,8.77
2023-03-31T02:42:27.026Z,8.90
2023-03-31T02:45:03.615Z,6.07
2023-03-31T02:47:32.454Z,10.47
2023-03-31T02:50:04.837Z,7.93
2023-03-31T02:52:58.756Z,6.30
2023-03-31T02:56:13.737Z,6.77
2023-03-31T02:59:22.054Z,6.83
2023-03-31T03:02:30.168Z,5.80
2023-03-31T03:05:36.940Z,8.83
2023-03-31T03:08:19.559Z,10.17
2023-03-31T03:11:04.068Z,8.97
2023-03-31T03:13:42.035Z,9.80
2023-03-31T03:16:19.508Z,10.73
2023-03-31T03:18:58.403Z,7.73
2023-03-31T03:21:27.555Z,8.73
2023-03-31T03:23:57.460Z,5.60
2023-03-31T03:26:28.213Z,6.97
2023-03-31T03:28:57.743Z,8.07
2023-03-31T03:31:26.665Z,4.03
2023-03-31T03:34:21.118Z,9.97
2023-03-31T03:36:49.565Z,8.87
2023-03-31T03:39:18.110Z,6.43
2023-03-31T03:41:46.953Z,7.77
2023-03-31T03:44:15.604Z,4.30
2023-03-31T03:46:44.129Z,3.93
2023-03-31T03:49:12.692Z,4.27
2023-03-31T03:51:42.647Z,5.83
2023-03-31T03:54:11.127Z,7.30
2023-03-31T03:56:39.706Z,5.30
2023-03-31T03:59:08.174Z,7.23
2023-03-31T04:01:37.276Z,6.93
2023-03-31T04:04:31.106Z,7.90
2023-03-31T04:07:01.129Z,5.90
2023-03-31T04:09:29.907Z,4.50
2023-03-31T04:12:32.387Z,5.70
2023-03-31T04:15:00.933Z,4.23
2023-03-31T04:17:34.532Z,4.13
2023-03-31T04:20:05.978Z,3.47
2023-03-31T04:22:40.657Z,4.40
2023-03-31T04:25:16.447Z,5.27
2023-03-31T04:27:50.938Z,4.97
2023-03-31T04:30:23.757Z,5.27
2023-03-31T04:33:06.709Z,3.93
2023-03-31T04:35:49.668Z,4.07
2023-03-31T04:38:22.153Z,6.33
2023-03-31T04:40:53.459Z,3.37
2023-03-31T04:43:23.257Z,4.97
2023-03-31T04:45:51.920Z,5.47
2023-03-31T04:48:20.485Z,4.50
2023-03-31T04:50:50.812Z,7.43
2023-03-31T04:53:20.612Z,4.90
2023-03-31T04:55:50.385Z,3.67
2023-03-31T04:58:19.235Z,6.50
2023-03-31T05:01:18.312Z,3.73
2023-03-31T05:03:48.264Z,4.93
2023-03-31T05:06:18.157Z,6.87
2023-03-31T05:08:48.048Z,8.23
2023-03-31T05:11:17.053Z,19.23
2023-03-31T05:14:11.083Z,7.70
2023-03-31T05:16:39.723Z,6.83
2023-03-31T05:19:08.191Z,8.67
2023-03-31T05:21:36.674Z,6.73
2023-03-31T05:24:06.868Z,9.33
2023-03-31T05:26:35.399Z,4.63
2023-03-31T05:29:03.851Z,7.50
2023-03-31T05:31:32.425Z,11.50
2023-03-31T05:34:00.974Z,6.47
2023-03-31T05:36:29.645Z,6.57
2023-03-31T05:38:58.146Z,6.17
2023-03-31T05:41:28.132Z,4.67
2023-03-31T05:43:56.721Z,5.07
2023-03-31T05:46:25.314Z,6.70
2023-03-31T05:48:53.844Z,5.57
2023-03-31T05:51:22.332Z,5.60
2023-03-31T05:53:50.799Z,7.20
2023-03-31T05:56:19.342Z,5.23
2023-03-31T05:58:49.403Z,3.87
2023-03-31T06:01:20.418Z,7.50
2023-03-31T06:03:49.349Z,5.50
2023-03-31T06:06:18.357Z,7.50
2023-03-31T06:08:49.239Z,3.80
2023-03-31T06:11:20.440Z,5.07
2023-03-31T06:13:50.923Z,7.20
2023-03-31T06:16:20.490Z,3.63
2023-03-31T06:18:51.334Z,3.10
2023-03-31T06:21:21.719Z,5.03
2023-03-31T06:23:50.654Z,6.30
2023-03-31T06:26:20.630Z,4.53
2023-03-31T06:28:51.420Z,5.07
2023-03-31T06:31:26.011Z,3.23
2023-03-31T06:33:54.819Z,4.93
2023-03-31T06:36:24.037Z,4.10
2023-03-31T06:38:52.592Z,3.27
2023-03-31T06:41:22.544Z,3.67
2023-03-31T06:43:52.602Z,5.60
2023-03-31T06:46:21.231Z,4.90
2023-03-31T06:48:49.738Z,3.97
2023-03-31T06:51:18.609Z,5.13
2023-03-31T06:53:47.209Z,7.57
2023-03-31T06:56:15.677Z,5.97
2023-03-31T06:58:44.240Z,5.57
2023-03-31T07:01:14.157Z,4.90
2023-03-31T07:03:42.671Z,5.93
2023-03-31T07:07:01.926Z,7.30
2023-03-31T07:09:30.534Z,5.07
2023-03-31T07:11:58.999Z,4.90
2023-03-31T07:14:27.605Z,6.17
2023-03-31T07:16:57.437Z,5.27
2023-03-31T07:19:26.001Z,5.70
2023-03-31T07:21:54.931Z,7.97
2023-03-31T07:24:54.049Z,7.53
2023-03-31T07:27:26.100Z,3.00
2023-03-31T07:29:55.222Z,4.50
2023-03-31T07:32:27.011Z,4.47
2023-03-31T07:34:56.937Z,6.17
2023-03-31T07:37:28.026Z,6.63
2023-03-31T07:39:59.314Z,4.57
2023-03-31T07:42:27.884Z,4.27
2023-03-31T07:44:56.396Z,7.43
2023-03-31T07:47:26.715Z,5.50
2023-03-31T07:50:21.013Z,5.30
2023-03-31T07:52:49.478Z,6.07
2023-03-31T07:55:42.850Z,4.73
2023-03-31T07:58:12.546Z,5.63
2023-03-31T08:00:41.187Z,5.10
2023-03-31T08:03:11.148Z,4.33
2023-03-31T08:05:39.585Z,8.50
2023-03-31T08:08:08.019Z,8.57
2023-03-31T08:10:36.519Z,10.37
2023-03-31T08:13:05.891Z,6.37
2023-03-31T08:15:34.305Z,6.40
2023-03-31T08:18:04.009Z,7.53
2023-03-31T08:20:34.154Z,4.57
2023-03-31T08:23:02.718Z,4.73
2023-03-31T08:25:31.824Z,4.13
2023-03-31T08:28:00.397Z,8.17
2023-03-31T08:30:28.891Z,3.70
2023-03-31T08:32:57.385Z,7.93
2023-03-31T08:35:25.933Z,5.70
2023-03-31T08:37:55.784Z,4.53
2023-03-31T08:40:28.431Z,3.37
2023-03-31T08:43:03.806Z,4.43
2023-03-31T08:45:36.826Z,5.13
2023-03-31T08:48:16.944Z,4.20
2023-03-31T08:50:53.964Z,4.43
2023-03-31T08:53:30.322Z,4.67
2023-03-31T08:56:01.486Z,4.93
2023-03-31T08:58:41.117Z,3.53
2023-03-31T09:01:25.612Z,3.97
2023-03-31T09:04:21.604Z,3.67
2023-03-31T09:07:02.395Z,5.97
2023-03-31T09:09:49.937Z,4.43
2023-03-31T09:12:28.950Z,3.00
2023-03-31T09:15:02.311Z,2.60
2023-03-31T09:17:35.018Z,4.03
2023-03-31T09:20:09.338Z,4.80
2023-03-31T09:22:44.494Z,5.33
2023-03-31T09:25:21.986Z,3.53
2023-03-31T09:28:14.585Z,3.57
2023-03-31T09:30:43.794Z,3.53
2023-03-31T09:33:17.897Z,5.93
2023-03-31T09:36:17.185Z,4.00
2023-03-31T09:38:47.857Z,2.97
2023-03-31T09:41:19.934Z,3.80
2023-03-31T09:43:49.787Z,4.10
2023-03-31T09:46:27.330Z,3.10
2023-03-31T09:49:04.401Z,6.40
2023-03-31T09:51:38.791Z,3.10
2023-03-31T09:54:17.262Z,8.90
2023-03-31T09:56:54.253Z,3.73
2023-03-31T09:59:31.117Z,5.43
2023-03-31T10:02:03.598Z,6.97
2023-03-31T10:04:35.849Z,6.73
2023-03-31T10:07:08.104Z,2.67
2023-03-31T10:09:40.610Z,3.17
2023-03-31T10:12:20.264Z,5.77
2023-03-31T10:14:52.047Z,3.53
2023-03-31T10:17:24.022Z,5.60
2023-03-31T10:19:55.252Z,4.90
2023-03-31T10:22:32.478Z,6.50
2023-03-31T10:25:15.688Z,5.77
2023-03-31T10:27:51.047Z,3.43
2023-03-31T10:30:25.896Z,2.50
2023-03-31T10:32:54.984Z,5.87
2023-03-31T10:35:31.279Z,4.27
2023-03-31T10:38:05.955Z,5.17
2023-03-31T10:40:37.372Z,2.97
2023-03-31T10:43:17.048Z,2.80
2023-03-31T10:45:51.178Z,4.33
2023-03-31T10:48:26.530Z,5.10
2023-03-31T10:50:56.525Z,4.93
2023-03-31T10:53:51.906Z,6.87
2023-03-31T10:56:38.125Z,6.50
2023-03-31T10:59:39.393Z,7.70
2023-03-31T11:02:46.794Z,4.67
2023-03-31T11:05:25.478Z,5.37
2023-03-31T11:08:17.377Z,7.90
2023-03-31T11:11:15.436Z,5.30
2023-03-31T11:13:53.649Z,5.50
2023-03-31T11:16:33.600Z,3.03
2023-03-31T11:19:18.915Z,5.83
2023-03-31T11:22:01.535Z,6.17
2023-03-31T11:25:09.500Z,5.53
2023-03-31T11:27:56.523Z,2.93
2023-03-31T11:30:31.903Z,4.67
2023-03-31T11:33:24.321Z,6.03
2023-03-31T11:36:14.854Z,5.43
2023-03-31T11:39:01.248Z,3.83
2023-03-31T11:41:38.077Z,4.47
2023-03-31T11:44:11.529Z,4.07
2023-03-31T11:46:48.177Z,5.87
2023-03-31T11:49:23.763Z,6.47
2023-03-31T11:51:57.342Z,5.87
2023-03-31T11:54:34.675Z,4.27
2023-03-31T11:57:11.649Z,4.80
2023-03-31T11:59:42.854Z,6.50
2023-03-31T12:02:23.054Z,8.20
2023-03-31T12:04:56.467Z,5.10
2023-03-31T12:07:32.184Z,4.53
2023-03-31T12:10:35.491Z,6.50
2023-03-31T12:13:46.195Z,4.60
2023-03-31T12:16:21.136Z,4.00
2023-03-31T12:19:04.193Z,6.17
2023-03-31T12:21:37.287Z,3.07
2023-03-31T12:24:41.251Z,3.27
2023-03-31T12:27:18.781Z,2.87
2023-03-31T12:29:55.426Z,5.13
2023-03-31T12:32:29.644Z,3.83
2023-03-31T12:35:05.776Z,6.50
2023-03-31T12:38:06.466Z,5.93
2023-03-31T12:40:50.260Z,6.63
2023-03-31T12:44:11.394Z,6.10
2023-03-31T12:47:21.421Z,5.63
2023-03-31T12:50:24.238Z,5.90
2023-03-31T12:53:05.779Z,3.70
2023-03-31T12:55:41.461Z,7.13
2023-03-31T12:58:47.487Z,5.50
2023-03-31T13:01:19.838Z,8.53
2023-03-31T13:03:55.191Z,5.97
2023-03-31T13:06:59.866Z,3.23
2023-03-31T13:09:54.136Z,5.37
2023-03-31T13:12:25.693Z,7.97
2023-03-31T13:15:00.094Z,4.43
2023-03-31T13:17:33.147Z,4.07
2023-03-31T13:20:31.932Z,4.60
2023-03-31T13:23:19.645Z,3.23
2023-03-31T13:25:52.227Z,3.97
2023-03-31T13:28:35.483Z,4.60
2023-03-31T13:31:05.435Z,4.80
2023-03-31T13:33:41.394Z,5.87
2023-03-31T13:36:51.003Z,5.63
2023-03-31T13:40:17.853Z,4.67
2023-03-31T13:43:32.367Z,5.47
2023-03-31T13:46:44.002Z,3.80
2023-03-31T13:49:55.342Z,7.13
2023-03-31T13:52:42.120Z,6.90
2023-03-31T13:56:11.302Z,4.47
2023-03-31T13:59:09.802Z,5.40
2023-03-31T14:02:12.185Z,4.47
2023-03-31T14:05:24.719Z,6.77
2023-03-31T14:08:00.385Z,4.40
2023-03-31T14:10:54.916Z,7.00
2023-03-31T14:13:26.883Z,4.90
2023-03-31T14:16:02.332Z,6.13
2023-03-31T14:18:35.168Z,3.17
2023-03-31T14:21:54.051Z,4.90
2023-03-31T14:24:34.455Z,3.07
2023-03-31T14:27:18.466Z,3.37
2023-03-31T14:29:57.944Z,4.73
2023-03-31T14:32:41.520Z,4.00
2023-03-31T14:35:29.965Z,3.57
2023-03-31T14:37:59.049Z,4.50
2023-03-31T14:40:27.995Z,3.63
2023-03-31T14:42:56.518Z,3.27
2023-03-31T14:45:31.481Z,4.43
2023-03-31T14:48:13.562Z,3.17
2023-03-31T14:50:45.852Z,6.20
2023-03-31T14:53:19.077Z,7.20
2023-03-31T14:55:57.994Z,8.13
2023-03-31T14:58:34.928Z,3.67
2023-03-31T15:01:07.463Z,3.73
2023-03-31T15:03:42.620Z,5.23
2023-03-31T15:06:12.607Z,6.33
2023-03-31T15:08:42.168Z,3.90
2023-03-31T15:11:22.091Z,9.07
2023-03-31T15:14:04.361Z,6.50
2023-03-31T15:16:42.240Z,6.20
2023-03-31T15:19:18.432Z,4.20
2023-03-31T15:22:16.348Z,4.70
2023-03-31T15:24:44.879Z,6.43
2023-03-31T15:27:29.805Z,7.37
2023-03-31T15:30:07.332Z,6.80
2023-03-31T15:32:39.062Z,4.70
2023-03-31T15:35:23.221Z,5.23
2023-03-31T15:38:04.014Z,4.53
2023-03-31T15:40:39.710Z,4.60
2023-03-31T15:43:25.414Z,5.70
2023-03-31T15:45:56.044Z,4.43
2023-03-31T15:48:30.520Z,3.40
2023-03-31T15:51:08.449Z,3.17
2023-03-31T15:54:00.777Z,4.87
2023-03-31T15:56:35.807Z,7.60
2023-03-31T15:59:07.562Z,7.30
2023-03-31T16:01:42.474Z,3.87
2023-03-31T16:04:15.059Z,5.87
2023-03-31T16:06:52.596Z,7.07
2023-03-31T16:09:27.832Z,4.40
2023-03-31T16:12:01.649Z,3.40
2023-03-31T16:14:35.578Z,6.13
2023-03-31T16:17:09.906Z,4.57
2023-03-31T16:19:44.491Z,5.03
2023-03-31T16:22:21.071Z,5.73
2023-03-31T16:24:50.123Z,4.53
2023-03-31T16:27:20.254Z,7.97
2023-03-31T16:29:48.732Z,7.27
2023-03-31T16:32:20.740Z,8.60
2023-03-31T16:35:01.290Z,9.23
2023-03-31T16:37:31.377Z,6.87
2023-03-31T16:39:59.904Z,6.30
2023-03-31T16:42:28.626Z,6.27
2023-03-31T16:45:12.571Z,13.33
2023-03-31T16:47:45.457Z,12.47
2023-03-31T16:50:17.424Z,20.60
2023-03-31T16:52:47.342Z,27.53
2023-03-31T16:55:16.137Z,19.47
2023-03-31T16:57:44.544Z,34.83
2023-03-31T17:00:14.534Z,25.60
2023-03-31T17:02:43.177Z,10.83
2023-03-31T17:05:13.482Z,16.87
2023-03-31T17:07:42.627Z,11.27
2023-03-31T17:10:13.454Z,12.00
2023-03-31T17:12:42.132Z,12.30
2023-03-31T17:15:12.829Z,20.63
2023-03-31T17:17:41.642Z,19.63
2023-03-31T17:20:12.142Z,12.97
2023-03-31T17:22:40.868Z,13.10
2023-03-31T17:25:11.561Z,8.83
2023-03-31T17:27:40.048Z,11.87
2023-03-31T17:30:10.070Z,10.10
2023-03-31T17:32:39.060Z,10.20
2023-03-31T17:35:10.417Z,10.00
2023-03-31T17:37:59.837Z,13.30
2023-03-31T17:40:31.524Z,18.40
2023-03-31T17:42:59.987Z,14.77
2023-03-31T17:45:28.556Z,8.10
2023-03-31T17:47:57.050Z,10.53
2023-03-31T17:50:26.249Z,6.43
2023-03-31T17:52:55.700Z,6.77
2023-03-31T17:55:24.837Z,6.10
2023-03-31T17:57:54.820Z,5.43
2023-03-31T18:00:23.638Z,5.60
2023-03-31T18:02:52.477Z,8.63
2023-03-31T18:05:21.598Z,8.73
2023-03-31T18:07:50.080Z,7.80
2023-03-31T18:10:24.481Z,7.03
2023-03-31T18:12:55.030Z,5.63
2023-03-31T18:15:23.641Z,11.20
2023-03-31T18:17:52.140Z,13.33
2023-03-31T18:20:21.145Z,11.93
2023-03-31T18:22:49.530Z,6.27
2023-03-31T18:25:18.211Z,7.63
2023-03-31T18:27:47.364Z,8.70
2023-03-31T18:30:17.543Z,7.30
2023-03-31T18:32:46.342Z,6.83
2023-03-31T18:35:16.789Z,9.70
2023-03-31T18:37:46.148Z,8.53
2023-03-31T18:40:15.046Z,5.20
2023-03-31T18:42:43.701Z,6.43
2023-03-31T18:45:12.612Z,5.57
2023-03-31T18:47:42.692Z,6.90
2023-03-31T18:50:13.934Z,5.17
2023-03-31T18:52:42.604Z,8.77
2023-03-31T18:55:11.874Z,8.47
2023-03-31T18:57:40.519Z,8.40
2023-03-31T19:00:11.028Z,15.50
2023-03-31T19:02:42.586Z,6.63
2023-03-31T19:05:11.625Z,6.17
2023-03-31T19:07:40.664Z,5.50
2023-03-31T19:10:10.693Z,12.17
2023-03-31T19:12:39.208Z,12.37
2023-03-31T19:15:09.555Z,10.93
2023-03-31T19:17:38.094Z,11.73
2023-03-31T19:20:16.261Z,12.57
2023-03-31T19:22:45.178Z,25.13
2023-03-31T19:25:13.874Z,27.93
2023-03-31T19:27:44.572Z,27.33
2023-03-31T19:30:19.598Z,18.23
2023-03-31T19:32:49.942Z,20.87
2023-03-31T19:35:21.199Z,19.33
2023-03-31T19:37:51.590Z,12.77
2023-03-31T19:40:20.514Z,14.03
2023-03-31T19:42:48.924Z,18.40
2023-03-31T19:45:17.602Z,49.93
2023-03-31T19:47:46.088Z,28.87
2023-03-31T19:50:14.649Z,38.27
2023-03-31T19:52:46.865Z,26.80
2023-03-31T19:55:17.260Z,11.47
2023-03-31T19:57:46.034Z,10.23
2023-03-31T20:00:18.278Z,16.80
2023-03-31T20:02:48.281Z,22.07
2023-03-31T20:05:17.197Z,16.23
2023-03-31T20:07:47.208Z,21.30
2023-03-31T20:10:15.947Z,21.60
2023-03-31T20:12:44.463Z,19.03
2023-03-31T20:15:12.884Z,18.80
2023-03-31T20:17:41.397Z,25.83
2023-03-31T20:20:10.922Z,24.17
2023-03-31T20:22:41.700Z,20.97
2023-03-31T20:25:12.335Z,15.93
2023-03-31T20:27:42.212Z,8.83
2023-03-31T20:30:13.319Z,9.67
2023-03-31T20:32:41.875Z,12.93
2023-03-31T20:35:10.778Z,8.30
2023-03-31T20:37:39.215Z,8.43
2023-03-31T20:40:09.489Z,11.70
2023-03-31T20:42:39.287Z,17.33
2023-03-31T20:45:09.797Z,22.80
2023-03-31T20:47:38.730Z,12.50
2023-03-31T20:50:08.638Z,8.03
2023-03-31T20:52:37.062Z,5.73
2023-03-31T20:55:06.463Z,5.43
2023-03-31T20:57:35.192Z,4.23
2023-03-31T21:00:07.114Z,5.17
2023-03-31T21:02:35.674Z,4.33
2023-03-31T21:05:04.218Z,4.77
2023-03-31T21:07:32.737Z,7.27
2023-03-31T21:10:01.189Z,5.27
2023-03-31T21:12:29.760Z,5.00
2023-03-31T21:14:58.173Z,3.93
2023-03-31T21:17:28.086Z,5.73
2023-03-31T21:19:56.746Z,5.03
2023-03-31T21:22:25.196Z,4.90
2023-03-31T21:24:53.612Z,7.07
2023-03-31T21:27:22.236Z,5.73
2023-03-31T21:29:50.704Z,9.17
2023-03-31T21:32:19.316Z,6.47
2023-03-31T21:34:49.179Z,6.70
2023-03-31T21:37:17.568Z,6.60
2023-03-31T21:39:46.497Z,5.37
2023-03-31T21:42:15.061Z,5.70
2023-03-31T21:45:09.443Z,5.87
2023-03-31T21:47:38.511Z,4.90
2023-03-31T21:50:09.619Z,9.53
2023-03-31T21:52:38.106Z,5.93
2023-03-31T21:55:07.348Z,8.47
2023-03-31T21:57:35.850Z,5.17
2023-03-31T22:00:05.236Z,7.50
2023-03-31T22:02:33.954Z,9.07
2023-03-31T22:05:03.264Z,6.63
2023-03-31T22:07:33.781Z,10.20
2023-03-31T22:10:27.905Z,5.83
2023-03-31T22:12:56.335Z,7.30
2023-03-31T22:15:25.051Z,6.40
2023-03-31T22:17:53.636Z,5.00
2023-03-31T22:20:22.376Z,3.90
2023-03-31T22:22:52.117Z,8.47
2023-03-31T22:25:21.300Z,7.90
2023-03-31T22:27:49.705Z,6.23
2023-03-31T22:30:18.358Z,4.73
2023-03-31T22:32:46.801Z,5.90
2023-03-31T22:35:15.892Z,6.93
2023-03-31T22:37:44.376Z,6.03
2023-03-31T22:40:14.269Z,5.27
2023-03-31T22:42:43.001Z,5.00
2023-03-31T22:45:12.100Z,6.10
2023-03-31T22:47:42.256Z,8.63
2023-03-31T22:50:12.044Z,6.57
2023-03-31T22:52:40.521Z,8.80
2023-03-31T22:55:35.078Z,7.70
2023-03-31T22:58:03.667Z,11.97
2023-03-31T23:00:32.112Z,7.20
2023-03-31T23:03:00.798Z,5.13
2023-03-31T23:05:29.443Z,9.87
2023-03-31T23:07:58.227Z,6.23
2023-03-31T23:10:27.313Z,8.30
2023-03-31T23:12:59.176Z,7.50
2023-03-31T23:15:27.821Z,5.57
2023-03-31T23:17:56.305Z,7.20
2023-03-31T23:20:24.763Z,8.87
2023-03-31T23:22:53.511Z,4.20
2023-03-31T23:25:22.163Z,4.47
2023-03-31T23:27:50.641Z,6.37
2023-03-31T23:30:20.817Z,5.13
2023-03-31T23:32:49.267Z,6.57
2023-03-31T23:35:17.920Z,5.20
2023-03-31T23:37:46.825Z,8.50
2023-03-31T23:40:15.352Z,5.23
2023-03-31T23:42:44.175Z,3.80
2023-03-31T23:45:13.152Z,3.80
2023-03-31T23:47:43.004Z,8.30
2023-03-31T23:50:12.466Z,7.33
2023-03-31T23:52:41.034Z,8.63
2023-03-31T23:55:10.686Z,7.90
2023-03-31T23:57:39.254Z,8.97
